sensor_id;sensor_type;location;lat;lon;timestamp;temperature;humidity
21167;DHT22;10741;52.272;9.580;2023-12-07T00:01:36;2.90;99.90
21167;DHT22;10741;52.272;9.580;2023-12-07T00:04:03;2.90;99.90
21167;DHT22;10741;52.272;9.580;2023-12-07T00:06:29;2.90;99.90
21167;DHT22;10741;52.272;9.580;2023-12-07T00:08:55;2.90;99.90
21167;DHT22;10741;52.272;9.580;2023-12-07T00:11:24;2.90;99.90
21167;DHT22;10741;52.272;9.580;2023-12-07T00:13:50;2.90;99.90
21167;DHT22;10741;52.272;9.580;2023-12-07T00:16:15;2.90;99.90
21167;DHT22;10741;52.272;9.580;2023-12-07T00:18:41;2.90;99.90
21167;DHT22;10741;52.272;9.580;2023-12-07T00:21:10;2.90;99.90
21167;DHT22;10741;52.272;9.580;2023-12-07T00:23:36;2.90;99.90
21167;DHT22;10741;52.272;9.580;2023-12-07T00:26:04;2.90;99.90
21167;DHT22;10741;52.272;9.580;2023-12-07T00:28:30;2.90;99.90
21167;DHT22;10741;52.272;9.580;2023-12-07T00:30:56;3.00;99.90
21167;DHT22;10741;52.272;9.580;2023-12-07T00:33:21;3.00;99.90
21167;DHT22;10741;52.272;9.580;2023-12-07T00:35:47;3.00;99.90
21167;DHT22;10741;52.272;9.580;2023-12-07T00:38:13;3.00;99.90
21167;DHT22;10741;52.272;9.580;2023-12-07T00:40:39;3.00;99.90
21167;DHT22;10741;52.272;9.580;2023-12-07T00:43:06;2.90;99.90
21167;DHT22;10741;52.272;9.580;2023-12-07T00:45:32;3.00;99.90
21167;DHT22;10741;52.272;9.580;2023-12-07T00:47:58;3.00;99.90
21167;DHT22;10741;52.272;9.580;2023-12-07T00:50:24;3.00;99.90
21167;DHT22;10741;52.272;9.580;2023-12-07T00:52:49;3.00;99.90
21167;DHT22;10741;52.272;9.580;2023-12-07T00:55:15;3.00;99.90
21167;DHT22;10741;52.272;9.580;2023-12-07T00:57:41;3.00;99.90
21167;DHT22;10741;52.272;9.580;2023-12-07T01:00:07;3.00;99.90
21167;DHT22;10741;52.272;9.580;2023-12-07T01:02:33;3.00;99.90
21167;DHT22;10741;52.272;9.580;2023-12-07T01:04:59;3.00;99.90
21167;DHT22;10741;52.272;9.580;2023-12-07T01:07:25;3.00;99.90
21167;DHT22;10741;52.272;9.580;2023-12-07T01:09:51;3.00;99.90
21167;DHT22;10741;52.272;9.580;2023-12-07T01:12:17;3.00;99.90
21167;DHT22;10741;52.272;9.580;2023-12-07T01:14:42;3.00;99.90
21167;DHT22;10741;52.272;9.580;2023-12-07T01:17:08;3.00;99.90
21167;DHT22;10741;52.272;9.580;2023-12-07T01:19:34;3.00;99.90
21167;DHT22;10741;52.272;9.580;2023-12-07T01:22:00;3.00;99.90
21167;DHT22;10741;52.272;9.580;2023-12-07T01:24:26;3.00;99.90
21167;DHT22;10741;52.272;9.580;2023-12-07T01:26:51;3.00;99.90
21167;DHT22;10741;52.272;9.580;2023-12-07T01:29:17;3.00;99.90
21167;DHT22;10741;52.272;9.580;2023-12-07T01:31:43;3.00;99.90
21167;DHT22;10741;52.272;9.580;2023-12-07T01:34:09;3.00;99.90
21167;DHT22;10741;52.272;9.580;2023-12-07T01:36:35;3.00;99.90
21167;DHT22;10741;52.272;9.580;2023-12-07T01:39:01;3.00;99.90
21167;DHT22;10741;52.272;9.580;2023-12-07T01:41:27;3.00;99.90
21167;DHT22;10741;52.272;9.580;2023-12-07T01:43:53;3.00;99.90
21167;DHT22;10741;52.272;9.580;2023-12-07T01:46:18;3.00;99.90
21167;DHT22;10741;52.272;9.580;2023-12-07T01:48:45;3.00;99.90
21167;DHT22;10741;52.272;9.580;2023-12-07T01:51:14;3.00;99.90
21167;DHT22;10741;52.272;9.580;2023-12-07T01:53:41;3.00;99.90
21167;DHT22;10741;52.272;9.580;2023-12-07T01:56:08;3.00;99.90
21167;DHT22;10741;52.272;9.580;2023-12-07T01:58:34;3.00;99.90
21167;DHT22;10741;52.272;9.580;2023-12-07T02:01:01;3.00;99.90
21167;DHT22;10741;52.272;9.580;2023-12-07T02:03:27;3.00;99.90
21167;DHT22;10741;52.272;9.580;2023-12-07T02:05:55;3.00;99.90
21167;DHT22;10741;52.272;9.580;2023-12-07T02:08:23;3.00;99.90
21167;DHT22;10741;52.272;9.580;2023-12-07T02:10:48;3.00;99.90
21167;DHT22;10741;52.272;9.580;2023-12-07T02:13:14;3.00;99.90
21167;DHT22;10741;52.272;9.580;2023-12-07T02:15:40;3.00;99.90
21167;DHT22;10741;52.272;9.580;2023-12-07T02:18:25;3.10;99.90
21167;DHT22;10741;52.272;9.580;2023-12-07T02:23:44;3.10;99.90
21167;DHT22;10741;52.272;9.580;2023-12-07T02:29:20;3.00;99.90
21167;DHT22;10741;52.272;9.580;2023-12-07T02:31:46;3.00;99.90
21167;DHT22;10741;52.272;9.580;2023-12-07T02:34:12;3.00;99.90
21167;DHT22;10741;52.272;9.580;2023-12-07T02:36:39;2.90;99.90
21167;DHT22;10741;52.272;9.580;2023-12-07T02:39:05;2.90;99.90
21167;DHT22;10741;52.272;9.580;2023-12-07T02:41:32;2.90;99.90
21167;DHT22;10741;52.272;9.580;2023-12-07T02:43:59;2.90;99.90
21167;DHT22;10741;52.272;9.580;2023-12-07T02:46:25;2.90;99.90
21167;DHT22;10741;52.272;9.580;2023-12-07T02:48:51;2.90;99.90
21167;DHT22;10741;52.272;9.580;2023-12-07T02:51:17;2.90;99.90
21167;DHT22;10741;52.272;9.580;2023-12-07T02:53:43;2.90;99.90
21167;DHT22;10741;52.272;9.580;2023-12-07T02:56:09;2.90;99.90
21167;DHT22;10741;52.272;9.580;2023-12-07T02:58:34;2.90;99.90
21167;DHT22;10741;52.272;9.580;2023-12-07T03:01:00;2.90;99.90
21167;DHT22;10741;52.272;9.580;2023-12-07T03:03:26;2.90;99.90
21167;DHT22;10741;52.272;9.580;2023-12-07T03:05:51;2.90;99.90
21167;DHT22;10741;52.272;9.580;2023-12-07T03:08:17;3.00;99.90
21167;DHT22;10741;52.272;9.580;2023-12-07T03:10:43;3.00;99.90
21167;DHT22;10741;52.272;9.580;2023-12-07T03:13:08;3.00;99.90
21167;DHT22;10741;52.272;9.580;2023-12-07T03:15:34;3.10;99.90
21167;DHT22;10741;52.272;9.580;2023-12-07T03:18:00;3.10;99.90
21167;DHT22;10741;52.272;9.580;2023-12-07T03:20:25;3.10;99.90
21167;DHT22;10741;52.272;9.580;2023-12-07T03:22:51;3.10;99.90
21167;DHT22;10741;52.272;9.580;2023-12-07T03:25:17;3.10;99.90
21167;DHT22;10741;52.272;9.580;2023-12-07T03:27:43;3.10;99.90
21167;DHT22;10741;52.272;9.580;2023-12-07T03:30:09;3.10;99.90
21167;DHT22;10741;52.272;9.580;2023-12-07T03:32:35;3.10;99.90
21167;DHT22;10741;52.272;9.580;2023-12-07T03:35:00;3.10;99.90
21167;DHT22;10741;52.272;9.580;2023-12-07T03:37:26;3.20;99.90
21167;DHT22;10741;52.272;9.580;2023-12-07T03:39:52;3.10;99.90
21167;DHT22;10741;52.272;9.580;2023-12-07T03:42:17;3.20;99.90
21167;DHT22;10741;52.272;9.580;2023-12-07T03:44:43;3.20;99.90
21167;DHT22;10741;52.272;9.580;2023-12-07T03:47:09;3.20;99.90
21167;DHT22;10741;52.272;9.580;2023-12-07T03:49:35;3.20;99.90
21167;DHT22;10741;52.272;9.580;2023-12-07T03:52:01;3.20;99.90
21167;DHT22;10741;52.272;9.580;2023-12-07T03:54:27;3.20;99.90
21167;DHT22;10741;52.272;9.580;2023-12-07T03:56:53;3.20;99.90
21167;DHT22;10741;52.272;9.580;2023-12-07T03:59:19;3.20;99.90
21167;DHT22;10741;52.272;9.580;2023-12-07T04:01:44;3.20;99.90
21167;DHT22;10741;52.272;9.580;2023-12-07T04:04:10;3.20;99.90
21167;DHT22;10741;52.272;9.580;2023-12-07T04:06:36;3.20;99.90
21167;DHT22;10741;52.272;9.580;2023-12-07T04:09:01;3.20;99.90
21167;DHT22;10741;52.272;9.580;2023-12-07T04:11:28;3.20;99.90
21167;DHT22;10741;52.272;9.580;2023-12-07T04:13:53;3.20;99.90
21167;DHT22;10741;52.272;9.580;2023-12-07T04:16:19;3.20;99.90
21167;DHT22;10741;52.272;9.580;2023-12-07T04:18:45;3.10;99.90
21167;DHT22;10741;52.272;9.580;2023-12-07T04:21:11;3.20;99.90
21167;DHT22;10741;52.272;9.580;2023-12-07T04:23:37;3.20;99.90
21167;DHT22;10741;52.272;9.580;2023-12-07T04:26:03;3.20;99.90
21167;DHT22;10741;52.272;9.580;2023-12-07T04:28:28;3.20;99.90
21167;DHT22;10741;52.272;9.580;2023-12-07T04:30:54;3.20;99.90
21167;DHT22;10741;52.272;9.580;2023-12-07T04:33:20;3.20;99.90
21167;DHT22;10741;52.272;9.580;2023-12-07T04:35:46;3.20;99.90
21167;DHT22;10741;52.272;9.580;2023-12-07T04:38:11;3.10;99.90
21167;DHT22;10741;52.272;9.580;2023-12-07T04:40:37;3.10;99.90
21167;DHT22;10741;52.272;9.580;2023-12-07T04:43:03;3.10;99.90
21167;DHT22;10741;52.272;9.580;2023-12-07T04:45:29;3.10;99.90
21167;DHT22;10741;52.272;9.580;2023-12-07T04:47:54;3.10;99.90
21167;DHT22;10741;52.272;9.580;2023-12-07T04:50:22;3.10;99.90
21167;DHT22;10741;52.272;9.580;2023-12-07T04:52:48;3.10;99.90
21167;DHT22;10741;52.272;9.580;2023-12-07T04:55:14;3.10;99.90
21167;DHT22;10741;52.272;9.580;2023-12-07T04:57:41;3.10;99.90
21167;DHT22;10741;52.272;9.580;2023-12-07T05:00:07;3.10;99.90
21167;DHT22;10741;52.272;9.580;2023-12-07T05:02:35;3.20;99.90
21167;DHT22;10741;52.272;9.580;2023-12-07T05:05:01;3.10;99.90
21167;DHT22;10741;52.272;9.580;2023-12-07T05:07:27;3.10;99.90
21167;DHT22;10741;52.272;9.580;2023-12-07T05:09:52;3.10;99.90
21167;DHT22;10741;52.272;9.580;2023-12-07T05:12:18;3.10;99.90
21167;DHT22;10741;52.272;9.580;2023-12-07T05:14:44;3.10;99.90
21167;DHT22;10741;52.272;9.580;2023-12-07T05:17:09;3.10;99.90
21167;DHT22;10741;52.272;9.580;2023-12-07T05:19:35;3.10;99.90
21167;DHT22;10741;52.272;9.580;2023-12-07T05:22:01;3.10;99.90
21167;DHT22;10741;52.272;9.580;2023-12-07T05:24:27;3.10;99.90
21167;DHT22;10741;52.272;9.580;2023-12-07T05:26:53;3.00;99.90
21167;DHT22;10741;52.272;9.580;2023-12-07T05:29:19;3.00;99.90
21167;DHT22;10741;52.272;9.580;2023-12-07T05:31:45;3.00;99.90
21167;DHT22;10741;52.272;9.580;2023-12-07T05:34:13;3.00;99.90
21167;DHT22;10741;52.272;9.580;2023-12-07T05:36:39;2.90;99.90
21167;DHT22;10741;52.272;9.580;2023-12-07T05:39:05;3.00;99.90
21167;DHT22;10741;52.272;9.580;2023-12-07T05:41:33;2.90;99.90
21167;DHT22;10741;52.272;9.580;2023-12-07T05:43:58;3.00;99.90
21167;DHT22;10741;52.272;9.580;2023-12-07T05:46:24;2.90;99.90
21167;DHT22;10741;52.272;9.580;2023-12-07T05:48:50;2.90;99.90
21167;DHT22;10741;52.272;9.580;2023-12-07T05:51:17;2.90;99.90
21167;DHT22;10741;52.272;9.580;2023-12-07T05:53:43;2.90;99.90
21167;DHT22;10741;52.272;9.580;2023-12-07T05:56:09;2.90;99.90
21167;DHT22;10741;52.272;9.580;2023-12-07T05:58:35;2.90;99.90
21167;DHT22;10741;52.272;9.580;2023-12-07T06:01:01;2.90;99.90
21167;DHT22;10741;52.272;9.580;2023-12-07T06:03:28;2.90;99.90
21167;DHT22;10741;52.272;9.580;2023-12-07T06:05:54;2.90;99.90
21167;DHT22;10741;52.272;9.580;2023-12-07T06:08:21;2.90;99.90
21167;DHT22;10741;52.272;9.580;2023-12-07T06:10:47;2.90;99.90
21167;DHT22;10741;52.272;9.580;2023-12-07T06:13:13;3.00;99.90
21167;DHT22;10741;52.272;9.580;2023-12-07T06:15:40;3.00;99.90
21167;DHT22;10741;52.272;9.580;2023-12-07T06:18:05;3.00;99.90
21167;DHT22;10741;52.272;9.580;2023-12-07T06:20:32;3.00;99.90
21167;DHT22;10741;52.272;9.580;2023-12-07T06:22:58;3.00;99.90
21167;DHT22;10741;52.272;9.580;2023-12-07T06:25:24;3.10;99.90
21167;DHT22;10741;52.272;9.580;2023-12-07T06:27:50;3.10;99.90
21167;DHT22;10741;52.272;9.580;2023-12-07T06:30:15;3.10;99.90
21167;DHT22;10741;52.272;9.580;2023-12-07T06:32:41;3.10;99.90
21167;DHT22;10741;52.272;9.580;2023-12-07T06:35:07;3.10;99.90
21167;DHT22;10741;52.272;9.580;2023-12-07T06:37:34;3.20;99.90
21167;DHT22;10741;52.272;9.580;2023-12-07T06:39:59;3.20;99.90
21167;DHT22;10741;52.272;9.580;2023-12-07T06:42:26;3.20;99.90
21167;DHT22;10741;52.272;9.580;2023-12-07T06:44:52;3.20;99.90
21167;DHT22;10741;52.272;9.580;2023-12-07T06:47:18;3.20;99.90
21167;DHT22;10741;52.272;9.580;2023-12-07T06:49:44;3.20;99.90
21167;DHT22;10741;52.272;9.580;2023-12-07T06:52:11;3.20;99.90
21167;DHT22;10741;52.272;9.580;2023-12-07T06:54:38;3.20;99.90
21167;DHT22;10741;52.272;9.580;2023-12-07T06:57:06;3.10;99.90
21167;DHT22;10741;52.272;9.580;2023-12-07T06:59:33;3.10;99.90
21167;DHT22;10741;52.272;9.580;2023-12-07T07:01:59;3.10;99.90
21167;DHT22;10741;52.272;9.580;2023-12-07T07:04:25;3.10;99.90
21167;DHT22;10741;52.272;9.580;2023-12-07T07:06:50;3.10;99.90
21167;DHT22;10741;52.272;9.580;2023-12-07T07:09:17;3.10;99.90
21167;DHT22;10741;52.272;9.580;2023-12-07T07:11:48;3.10;99.90
21167;DHT22;10741;52.272;9.580;2023-12-07T07:14:13;3.10;99.90
21167;DHT22;10741;52.272;9.580;2023-12-07T07:16:39;3.00;99.90
21167;DHT22;10741;52.272;9.580;2023-12-07T07:19:05;3.00;99.90
21167;DHT22;10741;52.272;9.580;2023-12-07T07:21:31;2.90;99.90
21167;DHT22;10741;52.272;9.580;2023-12-07T07:23:57;3.00;99.90
21167;DHT22;10741;52.272;9.580;2023-12-07T07:26:23;3.00;99.90
21167;DHT22;10741;52.272;9.580;2023-12-07T07:28:51;2.90;99.90
21167;DHT22;10741;52.272;9.580;2023-12-07T07:31:18;2.90;99.90
21167;DHT22;10741;52.272;9.580;2023-12-07T07:33:44;3.00;99.90
21167;DHT22;10741;52.272;9.580;2023-12-07T07:36:10;3.00;99.90
21167;DHT22;10741;52.272;9.580;2023-12-07T07:38:37;3.00;99.90
21167;DHT22;10741;52.272;9.580;2023-12-07T07:41:03;3.00;99.90
21167;DHT22;10741;52.272;9.580;2023-12-07T07:43:29;3.00;99.90
21167;DHT22;10741;52.272;9.580;2023-12-07T07:45:55;2.90;99.90
21167;DHT22;10741;52.272;9.580;2023-12-07T07:48:21;3.00;99.90
21167;DHT22;10741;52.272;9.580;2023-12-07T07:50:47;3.00;99.90
21167;DHT22;10741;52.272;9.580;2023-12-07T07:53:13;3.00;99.90
21167;DHT22;10741;52.272;9.580;2023-12-07T07:55:39;3.00;99.90
21167;DHT22;10741;52.272;9.580;2023-12-07T07:58:04;3.00;99.90
21167;DHT22;10741;52.272;9.580;2023-12-07T08:00:30;3.00;99.90
21167;DHT22;10741;52.272;9.580;2023-12-07T08:02:58;3.00;99.90
21167;DHT22;10741;52.272;9.580;2023-12-07T08:05:24;3.00;99.90
21167;DHT22;10741;52.272;9.580;2023-12-07T08:07:50;3.10;99.90
21167;DHT22;10741;52.272;9.580;2023-12-07T08:10:16;3.10;99.90
21167;DHT22;10741;52.272;9.580;2023-12-07T08:12:42;3.10;99.90
21167;DHT22;10741;52.272;9.580;2023-12-07T08:15:11;3.10;99.90
21167;DHT22;10741;52.272;9.580;2023-12-07T08:17:38;3.20;99.90
21167;DHT22;10741;52.272;9.580;2023-12-07T08:20:06;3.20;99.90
21167;DHT22;10741;52.272;9.580;2023-12-07T08:22:32;3.20;99.90
21167;DHT22;10741;52.272;9.580;2023-12-07T08:24:58;3.20;99.90
21167;DHT22;10741;52.272;9.580;2023-12-07T08:27:25;3.20;99.90
21167;DHT22;10741;52.272;9.580;2023-12-07T08:29:51;3.20;99.90
21167;DHT22;10741;52.272;9.580;2023-12-07T08:32:17;3.20;99.90
21167;DHT22;10741;52.272;9.580;2023-12-07T08:34:46;3.10;99.90
21167;DHT22;10741;52.272;9.580;2023-12-07T08:37:12;3.10;99.90
21167;DHT22;10741;52.272;9.580;2023-12-07T08:39:37;3.10;99.90
21167;DHT22;10741;52.272;9.580;2023-12-07T08:42:03;3.10;99.90
21167;DHT22;10741;52.272;9.580;2023-12-07T08:44:29;3.10;99.90
21167;DHT22;10741;52.272;9.580;2023-12-07T08:46:55;3.10;99.90
21167;DHT22;10741;52.272;9.580;2023-12-07T08:49:20;3.10;99.90
21167;DHT22;10741;52.272;9.580;2023-12-07T08:51:46;3.10;99.90
21167;DHT22;10741;52.272;9.580;2023-12-07T08:54:12;3.10;99.90
21167;DHT22;10741;52.272;9.580;2023-12-07T08:56:38;3.10;99.90
21167;DHT22;10741;52.272;9.580;2023-12-07T08:59:03;3.10;99.90
21167;DHT22;10741;52.272;9.580;2023-12-07T09:01:35;2.70;99.90
21167;DHT22;10741;52.272;9.580;2023-12-07T09:04:01;3.20;99.90
21167;DHT22;10741;52.272;9.580;2023-12-07T09:06:27;3.20;99.90
21167;DHT22;10741;52.272;9.580;2023-12-07T09:08:53;3.20;99.90
21167;DHT22;10741;52.272;9.580;2023-12-07T09:11:19;3.20;99.90
21167;DHT22;10741;52.272;9.580;2023-12-07T09:13:45;3.20;99.90
21167;DHT22;10741;52.272;9.580;2023-12-07T09:16:11;3.20;99.90
21167;DHT22;10741;52.272;9.580;2023-12-07T09:18:36;3.30;99.90
21167;DHT22;10741;52.272;9.580;2023-12-07T09:21:02;3.30;99.90
21167;DHT22;10741;52.272;9.580;2023-12-07T09:23:28;3.30;99.90
21167;DHT22;10741;52.272;9.580;2023-12-07T09:25:54;3.30;99.90
21167;DHT22;10741;52.272;9.580;2023-12-07T09:28:20;3.30;99.90
21167;DHT22;10741;52.272;9.580;2023-12-07T09:30:45;3.30;99.90
21167;DHT22;10741;52.272;9.580;2023-12-07T09:33:11;3.40;99.90
21167;DHT22;10741;52.272;9.580;2023-12-07T09:35:39;3.40;99.90
21167;DHT22;10741;52.272;9.580;2023-12-07T09:38:04;3.40;99.90
21167;DHT22;10741;52.272;9.580;2023-12-07T09:40:30;3.40;99.90
21167;DHT22;10741;52.272;9.580;2023-12-07T09:42:56;3.40;99.90
21167;DHT22;10741;52.272;9.580;2023-12-07T09:45:22;3.40;99.90
21167;DHT22;10741;52.272;9.580;2023-12-07T09:47:52;3.40;99.90
21167;DHT22;10741;52.272;9.580;2023-12-07T09:50:19;3.40;99.90
21167;DHT22;10741;52.272;9.580;2023-12-07T09:52:53;3.40;99.90
21167;DHT22;10741;52.272;9.580;2023-12-07T09:55:20;3.50;99.90
21167;DHT22;10741;52.272;9.580;2023-12-07T09:57:48;3.50;99.90
21167;DHT22;10741;52.272;9.580;2023-12-07T10:00:14;3.50;99.90
21167;DHT22;10741;52.272;9.580;2023-12-07T10:02:41;3.50;99.90
21167;DHT22;10741;52.272;9.580;2023-12-07T10:05:11;3.60;99.90
21167;DHT22;10741;52.272;9.580;2023-12-07T10:07:43;3.60;99.90
21167;DHT22;10741;52.272;9.580;2023-12-07T10:10:10;3.60;99.90
21167;DHT22;10741;52.272;9.580;2023-12-07T10:15:19;3.70;99.90
21167;DHT22;10741;52.272;9.580;2023-12-07T10:17:58;3.70;99.90
21167;DHT22;10741;52.272;9.580;2023-12-07T10:20:26;3.70;99.90
21167;DHT22;10741;52.272;9.580;2023-12-07T10:23:04;3.80;99.90
21167;DHT22;10741;52.272;9.580;2023-12-07T10:25:32;3.80;99.90
21167;DHT22;10741;52.272;9.580;2023-12-07T10:27:58;3.80;99.90
21167;DHT22;10741;52.272;9.580;2023-12-07T10:30:24;3.80;99.90
21167;DHT22;10741;52.272;9.580;2023-12-07T10:32:51;3.80;99.90
21167;DHT22;10741;52.272;9.580;2023-12-07T10:35:18;3.80;99.90
21167;DHT22;10741;52.272;9.580;2023-12-07T10:37:45;3.90;99.90
21167;DHT22;10741;52.272;9.580;2023-12-07T10:40:12;3.90;99.90
21167;DHT22;10741;52.272;9.580;2023-12-07T10:42:42;3.90;99.90
21167;DHT22;10741;52.272;9.580;2023-12-07T10:45:14;4.00;99.90
21167;DHT22;10741;52.272;9.580;2023-12-07T10:47:43;4.00;99.90
21167;DHT22;10741;52.272;9.580;2023-12-07T10:50:10;4.00;99.90
21167;DHT22;10741;52.272;9.580;2023-12-07T10:52:59;4.00;99.90
21167;DHT22;10741;52.272;9.580;2023-12-07T10:55:30;4.10;99.90
21167;DHT22;10741;52.272;9.580;2023-12-07T10:58:01;4.10;99.90
21167;DHT22;10741;52.272;9.580;2023-12-07T11:00:27;4.20;99.90
21167;DHT22;10741;52.272;9.580;2023-12-07T11:02:54;4.20;99.90
21167;DHT22;10741;52.272;9.580;2023-12-07T11:05:20;4.20;99.90
21167;DHT22;10741;52.272;9.580;2023-12-07T11:08:04;4.10;99.90
21167;DHT22;10741;52.272;9.580;2023-12-07T11:10:58;4.10;99.90
21167;DHT22;10741;52.272;9.580;2023-12-07T11:13:30;4.10;99.90
21167;DHT22;10741;52.272;9.580;2023-12-07T11:15:57;4.10;99.90
21167;DHT22;10741;52.272;9.580;2023-12-07T11:18:26;4.00;99.90
21167;DHT22;10741;52.272;9.580;2023-12-07T11:20:53;4.00;99.90
21167;DHT22;10741;52.272;9.580;2023-12-07T11:23:20;4.00;99.90
21167;DHT22;10741;52.272;9.580;2023-12-07T11:25:47;4.10;99.90
21167;DHT22;10741;52.272;9.580;2023-12-07T11:28:14;4.10;99.90
21167;DHT22;10741;52.272;9.580;2023-12-07T11:30:45;4.10;99.90
21167;DHT22;10741;52.272;9.580;2023-12-07T11:33:11;4.10;99.90
21167;DHT22;10741;52.272;9.580;2023-12-07T11:38:28;4.20;99.90
21167;DHT22;10741;52.272;9.580;2023-12-07T11:40:55;4.30;99.90
21167;DHT22;10741;52.272;9.580;2023-12-07T11:45:58;4.30;99.90
21167;DHT22;10741;52.272;9.580;2023-12-07T11:48:24;4.30;99.90
21167;DHT22;10741;52.272;9.580;2023-12-07T11:50:56;4.30;99.90
21167;DHT22;10741;52.272;9.580;2023-12-07T11:53:29;4.30;99.90
21167;DHT22;10741;52.272;9.580;2023-12-07T11:56:02;4.30;99.90
21167;DHT22;10741;52.272;9.580;2023-12-07T11:58:29;4.30;99.90
21167;DHT22;10741;52.272;9.580;2023-12-07T12:00:56;4.40;99.90
21167;DHT22;10741;52.272;9.580;2023-12-07T12:03:29;4.40;99.90
21167;DHT22;10741;52.272;9.580;2023-12-07T12:05:55;4.40;99.90
21167;DHT22;10741;52.272;9.580;2023-12-07T12:08:22;4.40;99.90
21167;DHT22;10741;52.272;9.580;2023-12-07T12:10:49;4.40;99.90
21167;DHT22;10741;52.272;9.580;2023-12-07T12:13:17;4.40;99.90
21167;DHT22;10741;52.272;9.580;2023-12-07T12:15:43;4.30;99.90
21167;DHT22;10741;52.272;9.580;2023-12-07T12:18:09;4.40;99.90
21167;DHT22;10741;52.272;9.580;2023-12-07T12:20:35;4.40;99.90
21167;DHT22;10741;52.272;9.580;2023-12-07T12:23:01;4.50;99.90
21167;DHT22;10741;52.272;9.580;2023-12-07T12:25:29;4.50;99.90
21167;DHT22;10741;52.272;9.580;2023-12-07T12:28:01;4.50;99.90
21167;DHT22;10741;52.272;9.580;2023-12-07T12:30:28;4.50;99.90
21167;DHT22;10741;52.272;9.580;2023-12-07T12:32:55;4.50;99.90
21167;DHT22;10741;52.272;9.580;2023-12-07T12:35:20;4.60;99.90
21167;DHT22;10741;52.272;9.580;2023-12-07T12:37:47;4.60;99.90
21167;DHT22;10741;52.272;9.580;2023-12-07T12:40:18;4.60;99.90
21167;DHT22;10741;52.272;9.580;2023-12-07T12:42:48;4.70;99.90
21167;DHT22;10741;52.272;9.580;2023-12-07T12:45:15;4.70;99.90
21167;DHT22;10741;52.272;9.580;2023-12-07T12:47:42;4.70;99.90
21167;DHT22;10741;52.272;9.580;2023-12-07T12:52:58;4.70;99.90
21167;DHT22;10741;52.272;9.580;2023-12-07T12:55:26;4.80;99.90
21167;DHT22;10741;52.272;9.580;2023-12-07T12:57:52;4.90;99.90
21167;DHT22;10741;52.272;9.580;2023-12-07T13:00:17;4.90;99.90
21167;DHT22;10741;52.272;9.580;2023-12-07T13:02:43;5.00;99.90
21167;DHT22;10741;52.272;9.580;2023-12-07T13:05:09;5.10;99.90
21167;DHT22;10741;52.272;9.580;2023-12-07T13:07:35;5.10;99.90
21167;DHT22;10741;52.272;9.580;2023-12-07T13:10:01;5.10;99.90
21167;DHT22;10741;52.272;9.580;2023-12-07T13:12:27;5.10;99.90
21167;DHT22;10741;52.272;9.580;2023-12-07T13:14:55;5.10;99.90
21167;DHT22;10741;52.272;9.580;2023-12-07T13:17:21;5.20;99.90
21167;DHT22;10741;52.272;9.580;2023-12-07T13:19:47;5.10;99.90
21167;DHT22;10741;52.272;9.580;2023-12-07T13:22:13;5.20;99.90
21167;DHT22;10741;52.272;9.580;2023-12-07T13:24:38;5.20;99.90
21167;DHT22;10741;52.272;9.580;2023-12-07T13:27:04;5.20;99.90
21167;DHT22;10741;52.272;9.580;2023-12-07T13:29:30;5.10;99.90
21167;DHT22;10741;52.272;9.580;2023-12-07T13:31:56;5.10;99.90
21167;DHT22;10741;52.272;9.580;2023-12-07T13:34:23;5.00;99.90
21167;DHT22;10741;52.272;9.580;2023-12-07T13:36:51;5.00;99.90
21167;DHT22;10741;52.272;9.580;2023-12-07T13:39:17;5.00;99.90
21167;DHT22;10741;52.272;9.580;2023-12-07T13:41:46;5.00;99.90
21167;DHT22;10741;52.272;9.580;2023-12-07T13:44:17;4.90;99.90
21167;DHT22;10741;52.272;9.580;2023-12-07T13:46:44;4.90;99.90
21167;DHT22;10741;52.272;9.580;2023-12-07T13:49:10;4.80;99.90
21167;DHT22;10741;52.272;9.580;2023-12-07T13:51:38;4.70;99.90
21167;DHT22;10741;52.272;9.580;2023-12-07T13:54:03;4.70;99.90
21167;DHT22;10741;52.272;9.580;2023-12-07T13:56:29;4.80;99.90
21167;DHT22;10741;52.272;9.580;2023-12-07T13:58:55;4.80;99.90
21167;DHT22;10741;52.272;9.580;2023-12-07T14:01:21;5.30;99.90
21167;DHT22;10741;52.272;9.580;2023-12-07T14:03:47;6.10;99.90
21167;DHT22;10741;52.272;9.580;2023-12-07T14:06:24;6.50;99.90
21167;DHT22;10741;52.272;9.580;2023-12-07T14:08:51;6.30;99.90
21167;DHT22;10741;52.272;9.580;2023-12-07T14:11:17;5.90;99.90
21167;DHT22;10741;52.272;9.580;2023-12-07T14:13:44;5.70;99.90
21167;DHT22;10741;52.272;9.580;2023-12-07T14:16:12;5.40;99.90
21167;DHT22;10741;52.272;9.580;2023-12-07T14:18:38;5.20;99.90
21167;DHT22;10741;52.272;9.580;2023-12-07T14:21:03;5.00;99.90
21167;DHT22;10741;52.272;9.580;2023-12-07T14:23:29;4.70;99.90
21167;DHT22;10741;52.272;9.580;2023-12-07T14:25:55;4.50;99.90
21167;DHT22;10741;52.272;9.580;2023-12-07T14:28:24;4.30;99.90
21167;DHT22;10741;52.272;9.580;2023-12-07T14:30:50;4.20;99.90
21167;DHT22;10741;52.272;9.580;2023-12-07T14:33:22;4.00;99.90
21167;DHT22;10741;52.272;9.580;2023-12-07T14:35:47;3.80;99.90
21167;DHT22;10741;52.272;9.580;2023-12-07T14:38:14;3.60;99.90
21167;DHT22;10741;52.272;9.580;2023-12-07T14:40:40;3.40;99.90
21167;DHT22;10741;52.272;9.580;2023-12-07T14:43:07;3.30;99.90
21167;DHT22;10741;52.272;9.580;2023-12-07T14:45:33;3.20;99.90
21167;DHT22;10741;52.272;9.580;2023-12-07T14:47:58;3.00;99.90
21167;DHT22;10741;52.272;9.580;2023-12-07T14:50:24;2.90;99.90
21167;DHT22;10741;52.272;9.580;2023-12-07T14:52:50;2.80;99.90
21167;DHT22;10741;52.272;9.580;2023-12-07T14:55:16;2.60;99.90
21167;DHT22;10741;52.272;9.580;2023-12-07T14:57:44;2.50;99.90
21167;DHT22;10741;52.272;9.580;2023-12-07T15:00:11;2.40;99.90
21167;DHT22;10741;52.272;9.580;2023-12-07T15:02:37;2.30;99.90
21167;DHT22;10741;52.272;9.580;2023-12-07T15:05:02;2.10;99.90
21167;DHT22;10741;52.272;9.580;2023-12-07T15:07:30;2.00;99.90
21167;DHT22;10741;52.272;9.580;2023-12-07T15:09:55;1.90;99.90
21167;DHT22;10741;52.272;9.580;2023-12-07T15:12:23;1.80;99.90
21167;DHT22;10741;52.272;9.580;2023-12-07T15:14:50;1.70;99.90
21167;DHT22;10741;52.272;9.580;2023-12-07T15:17:16;1.50;99.90
21167;DHT22;10741;52.272;9.580;2023-12-07T15:19:42;1.40;99.90
21167;DHT22;10741;52.272;9.580;2023-12-07T15:22:09;1.30;99.90
21167;DHT22;10741;52.272;9.580;2023-12-07T15:24:35;1.20;99.90
21167;DHT22;10741;52.272;9.580;2023-12-07T15:27:01;1.10;99.90
21167;DHT22;10741;52.272;9.580;2023-12-07T15:29:27;1.10;99.90
21167;DHT22;10741;52.272;9.580;2023-12-07T15:31:52;1.00;99.90
21167;DHT22;10741;52.272;9.580;2023-12-07T15:34:19;0.90;99.90
21167;DHT22;10741;52.272;9.580;2023-12-07T15:36:45;0.80;99.90
21167;DHT22;10741;52.272;9.580;2023-12-07T15:39:10;0.70;99.90
21167;DHT22;10741;52.272;9.580;2023-12-07T15:41:37;0.70;99.90
21167;DHT22;10741;52.272;9.580;2023-12-07T15:44:03;0.60;99.90
21167;DHT22;10741;52.272;9.580;2023-12-07T15:46:29;0.50;99.90
21167;DHT22;10741;52.272;9.580;2023-12-07T15:48:55;0.50;99.90
21167;DHT22;10741;52.272;9.580;2023-12-07T15:51:21;0.40;99.90
21167;DHT22;10741;52.272;9.580;2023-12-07T15:53:47;0.40;99.90
21167;DHT22;10741;52.272;9.580;2023-12-07T15:56:12;0.40;99.90
21167;DHT22;10741;52.272;9.580;2023-12-07T15:58:38;0.40;99.90